ZSING FACT-FACT
Flight info
| Callsign | ZSING |
|---|---|
| Flight time | N/A |
| Altitude | 1500 |
| Route | DCT |
| Aircraft | SR22/L-SD/C |
Departure
| Time | 2026-05-04 09:44 |
|---|---|
| Airport | Cape Town International Airport (FACT) |
Arrival
| Time | N/A |
|---|---|
| Airport | Cape Town International Airport (FACT) |
| Time | Latitude | Longitude | Altitude | Speed | Heading |
|---|---|---|---|---|---|
| 2026-05-04 09:43 | -34.03324 | 18.52606 | 2053 ft | 135 kts | 189° |
| 2026-05-04 09:44 | -34.04046 | 18.52449 | 2017 ft | 139 kts | 191° |
| 2026-05-04 09:44 | -34.05008 | 18.52311 | 2036 ft | 139 kts | 185° |
| 2026-05-04 09:44 | -34.05959 | 18.52178 | 2059 ft | 138 kts | 188° |
| 2026-05-04 09:46 | -34.12727 | 18.52509 | 2033 ft | 145 kts | 171° |
| 2026-05-04 09:46 | -34.13776 | 18.52681 | 1989 ft | 155 kts | 174° |
| 2026-05-04 09:46 | -34.14844 | 18.52781 | 2145 ft | 150 kts | 176° |
| 2026-05-04 09:47 | -34.15877 | 18.52932 | 2225 ft | 152 kts | 170° |
| 2026-05-04 09:47 | -34.16936 | 18.53168 | 2242 ft | 157 kts | 169° |
| 2026-05-04 09:49 | -34.24921 | 18.54281 | 2091 ft | 163 kts | 179° |
| 2026-05-04 09:49 | -34.26069 | 18.54312 | 2056 ft | 166 kts | 176° |
| 2026-05-04 09:49 | -34.27206 | 18.54572 | 1975 ft | 169 kts | 161° |
| 2026-05-04 09:51 | -34.33683 | 18.56559 | 2047 ft | 163 kts | 184° |
| 2026-05-04 09:51 | -34.34850 | 18.56469 | 1932 ft | 169 kts | 178° |
| 2026-05-04 09:51 | -34.36010 | 18.56452 | 1993 ft | 164 kts | 186° |
| 2026-05-04 09:51 | -34.37067 | 18.55924 | 1860 ft | 170 kts | 225° |
| 2026-05-04 09:52 | -34.37876 | 18.54896 | 1760 ft | 174 kts | 220° |
| 2026-05-04 09:52 | -34.38815 | 18.54074 | 1955 ft | 159 kts | 223° |
| 2026-05-04 09:52 | -34.39594 | 18.53096 | 1932 ft | 162 kts | 225° |
| 2026-05-04 09:52 | -34.40371 | 18.52129 | 2048 ft | 157 kts | 232° |
| 2026-05-04 09:53 | -34.41005 | 18.51038 | 2078 ft | 158 kts | 233° |
| 2026-05-04 09:53 | -34.41660 | 18.49963 | 2138 ft | 158 kts | 234° |
| 2026-05-04 09:53 | -34.42343 | 18.48882 | 1961 ft | 170 kts | 229° |
| 2026-05-04 09:53 | -34.43263 | 18.48037 | 2072 ft | 162 kts | 213° |
| 2026-05-04 09:54 | -34.43884 | 18.46938 | 2081 ft | 162 kts | 258° |
| 2026-05-04 09:54 | -34.43883 | 18.45586 | 2087 ft | 163 kts | 264° |
| 2026-05-04 09:54 | -34.44297 | 18.44301 | 2093 ft | 163 kts | 242° |
| 2026-05-04 09:54 | -34.44693 | 18.43034 | 2087 ft | 163 kts | 261° |
| 2026-05-04 09:55 | -34.44838 | 18.41655 | 2089 ft | 164 kts | 262° |
| 2026-05-04 09:55 | -34.44920 | 18.40293 | 2080 ft | 164 kts | 277° |
| 2026-05-04 09:55 | -34.44680 | 18.38947 | 2089 ft | 164 kts | 282° |
| 2026-05-04 09:55 | -34.44341 | 18.37631 | 2082 ft | 164 kts | 299° |
| 2026-05-04 09:56 | -34.43724 | 18.36463 | 2089 ft | 164 kts | 302° |
| 2026-05-04 09:56 | -34.43101 | 18.35304 | 2088 ft | 164 kts | 302° |
| 2026-05-04 09:56 | -34.42454 | 18.34157 | 2081 ft | 164 kts | 313° |
| 2026-05-04 09:56 | -34.41499 | 18.33432 | 2090 ft | 164 kts | 333° |
| 2026-05-04 09:57 | -34.40470 | 18.32799 | 2089 ft | 164 kts | 333° |
| 2026-05-04 09:57 | -34.39450 | 18.32172 | 2088 ft | 164 kts | 333° |
| 2026-05-04 09:57 | -34.38432 | 18.31547 | 2088 ft | 164 kts | 333° |
| 2026-05-04 09:57 | -34.37415 | 18.30923 | 2088 ft | 164 kts | 333° |
| 2026-05-04 09:58 | -34.36391 | 18.30295 | 2088 ft | 164 kts | 333° |
| 2026-05-04 09:58 | -34.35351 | 18.29689 | 2084 ft | 164 kts | 340° |
| 2026-05-04 09:58 | -34.34256 | 18.29279 | 2088 ft | 164 kts | 343° |
| 2026-05-04 10:00 | -34.26359 | 18.27754 | 2088 ft | 164 kts | 353° |
| 2026-05-04 10:00 | -34.25212 | 18.27588 | 2088 ft | 164 kts | 353° |
| 2026-05-04 10:02 | -34.17232 | 18.26782 | 2088 ft | 164 kts | 353° |
| 2026-05-04 10:04 | -34.09054 | 18.25625 | 1486 ft | 170 kts | 353° |
| 2026-05-04 10:04 | -34.07890 | 18.25460 | 1333 ft | 167 kts | 353° |
| 2026-05-04 10:04 | -34.06746 | 18.25299 | 1183 ft | 165 kts | 353° |
| 2026-05-04 10:04 | -34.05607 | 18.25139 | 1033 ft | 164 kts | 353° |
| 2026-05-04 10:05 | -34.04467 | 18.24979 | 877 ft | 164 kts | 353° |
| 2026-05-04 10:05 | -34.03307 | 18.24817 | 651 ft | 168 kts | 353° |
| 2026-05-04 10:05 | -34.02147 | 18.24764 | 525 ft | 164 kts | 3° |
| 2026-05-04 10:05 | -34.01030 | 18.24843 | 510 ft | 160 kts | 3° |
| 2026-05-04 10:06 | -33.99915 | 18.24924 | 511 ft | 161 kts | 3° |
| 2026-05-04 10:06 | -33.98775 | 18.25007 | 510 ft | 162 kts | 3° |
| 2026-05-04 10:06 | -33.97655 | 18.25089 | 510 ft | 163 kts | 3° |
| 2026-05-04 10:08 | -33.90706 | 18.25602 | 510 ft | 168 kts | 3° |
| 2026-05-04 10:08 | -33.89537 | 18.25689 | 509 ft | 168 kts | 3° |
| 2026-05-04 10:08 | -33.88411 | 18.26020 | 511 ft | 167 kts | 23° |
| 2026-05-04 10:08 | -33.87323 | 18.26589 | 510 ft | 168 kts | 23° |
| 2026-05-04 10:09 | -33.86342 | 18.27331 | 510 ft | 167 kts | 43° |
| 2026-05-04 10:09 | -33.85497 | 18.28292 | 511 ft | 168 kts | 43° |
| 2026-05-04 10:09 | -33.84654 | 18.29255 | 510 ft | 168 kts | 43° |
| 2026-05-04 10:09 | -33.83803 | 18.30226 | 510 ft | 168 kts | 43° |
| 2026-05-04 10:10 | -33.82948 | 18.31203 | 510 ft | 168 kts | 43° |
| 2026-05-04 10:10 | -33.82097 | 18.32174 | 493 ft | 169 kts | 43° |
| 2026-05-04 10:10 | -33.81240 | 18.33152 | 420 ft | 172 kts | 43° |
| 2026-05-04 10:10 | -33.80356 | 18.34161 | 345 ft | 172 kts | 44° |
| 2026-05-04 10:11 | -33.79498 | 18.35139 | 268 ft | 170 kts | 44° |
| 2026-05-04 10:11 | -33.78647 | 18.36109 | 216 ft | 167 kts | 44° |
| 2026-05-04 10:11 | -33.77800 | 18.37076 | 210 ft | 166 kts | 44° |
| 2026-05-04 10:11 | -33.76966 | 18.38027 | 210 ft | 166 kts | 44° |
| 2026-05-04 10:12 | -33.76131 | 18.38980 | 210 ft | 165 kts | 44° |
| 2026-05-04 10:12 | -33.75291 | 18.39940 | 210 ft | 165 kts | 44° |
| 2026-05-04 10:12 | -33.74457 | 18.40903 | 208 ft | 165 kts | 41° |
| 2026-05-04 10:12 | -33.73401 | 18.41355 | 210 ft | 165 kts | 357° |
| 2026-05-04 10:13 | -33.72293 | 18.41034 | 213 ft | 165 kts | 343° |
| 2026-05-04 10:13 | -33.71188 | 18.40647 | 211 ft | 165 kts | 343° |
| 2026-05-04 10:13 | -33.70075 | 18.40257 | 210 ft | 165 kts | 343° |
| 2026-05-04 10:13 | -33.68969 | 18.39870 | 210 ft | 165 kts | 343° |
| 2026-05-04 10:14 | -33.67857 | 18.39482 | 210 ft | 165 kts | 343° |
| 2026-05-04 10:14 | -33.66753 | 18.39097 | 262 ft | 162 kts | 343° |
| 2026-05-04 10:16 | -33.59918 | 18.39858 | 1002 ft | 162 kts | 49° |
| 2026-05-04 10:16 | -33.59370 | 18.41032 | 1012 ft | 162 kts | 64° |
| 2026-05-04 10:16 | -33.58868 | 18.42251 | 1010 ft | 163 kts | 64° |
| 2026-05-04 10:16 | -33.58630 | 18.43570 | 1013 ft | 156 kts | 93° |
| 2026-05-04 10:17 | -33.58693 | 18.44726 | 988 ft | 124 kts | 94° |
| 2026-05-04 10:17 | -33.58846 | 18.45604 | 982 ft | 94 kts | 113° |
| 2026-05-04 10:19 | -33.61776 | 18.48171 | 693 ft | 89 kts | 208° |
| 2026-05-04 10:19 | -33.62324 | 18.47798 | 636 ft | 89 kts | 211° |
| 2026-05-04 10:19 | -33.62845 | 18.47421 | 597 ft | 86 kts | 205° |
| 2026-05-04 10:19 | -33.63423 | 18.47230 | 465 ft | 84 kts | 187° |
| 2026-05-04 10:20 | -33.63993 | 18.47197 | 352 ft | 81 kts | 180° |
| 2026-05-04 10:20 | -33.64554 | 18.47210 | 256 ft | 78 kts | 178° |
| 2026-05-04 10:20 | -33.65044 | 18.47222 | 212 ft | 59 kts | 176° |
| 2026-05-04 10:20 | -33.65500 | 18.47372 | 411 ft | 81 kts | 123° |
| 2026-05-04 10:21 | -33.65505 | 18.48135 | 619 ft | 109 kts | 58° |
| 2026-05-04 10:21 | -33.65434 | 18.48256 | 658 ft | 112 kts | 51° |